sensor_id;sensor_type;location;lat;lon;timestamp;P1;durP1;ratioP1;P2;durP2;ratioP2
8704;SDS011;4389;41.932;25.904;2022-09-01T00:01:52;12.90;;;9.83;;
8704;SDS011;4389;41.932;25.904;2022-09-01T00:04:20;14.50;;;9.83;;
8704;SDS011;4389;41.932;25.904;2022-09-01T00:06:51;19.37;;;10.87;;
8704;SDS011;4389;41.932;25.904;2022-09-01T00:09:20;11.67;;;10.43;;
8704;SDS011;4389;41.932;25.904;2022-09-01T00:11:50;12.93;;;10.40;;
8704;SDS011;4389;41.932;25.904;2022-09-01T00:14:18;19.00;;;10.47;;
8704;SDS011;4389;41.932;25.904;2022-09-01T00:16:48;13.00;;;9.70;;
8704;SDS011;4389;41.932;25.904;2022-09-01T00:19:16;15.73;;;9.87;;
8704;SDS011;4389;41.932;25.904;2022-09-01T00:21:43;16.93;;;10.00;;
8704;SDS011;4389;41.932;25.904;2022-09-01T00:24:11;11.83;;;9.60;;
8704;SDS011;4389;41.932;25.904;2022-09-01T00:26:41;16.47;;;10.40;;
8704;SDS011;4389;41.932;25.904;2022-09-01T00:29:08;21.90;;;9.97;;
8704;SDS011;4389;41.932;25.904;2022-09-01T00:31:35;19.10;;;10.73;;
8704;SDS011;4389;41.932;25.904;2022-09-01T00:34:02;15.07;;;10.80;;
8704;SDS011;4389;41.932;25.904;2022-09-01T00:36:31;15.23;;;11.33;;
8704;SDS011;4389;41.932;25.904;2022-09-01T00:38:58;25.10;;;11.50;;
8704;SDS011;4389;41.932;25.904;2022-09-01T00:41:26;16.53;;;11.37;;
8704;SDS011;4389;41.932;25.904;2022-09-01T00:43:55;13.27;;;10.50;;
8704;SDS011;4389;41.932;25.904;2022-09-01T00:46:25;13.73;;;10.20;;
8704;SDS011;4389;41.932;25.904;2022-09-01T00:48:55;17.87;;;10.33;;
8704;SDS011;4389;41.932;25.904;2022-09-01T00:51:24;13.67;;;10.43;;
8704;SDS011;4389;41.932;25.904;2022-09-01T00:53:54;16.43;;;11.00;;
8704;SDS011;4389;41.932;25.904;2022-09-01T00:56:24;15.60;;;11.63;;
8704;SDS011;4389;41.932;25.904;2022-09-01T00:58:52;16.37;;;10.60;;
8704;SDS011;4389;41.932;25.904;2022-09-01T01:01:20;18.27;;;11.17;;
8704;SDS011;4389;41.932;25.904;2022-09-01T01:03:48;14.13;;;11.10;;
8704;SDS011;4389;41.932;25.904;2022-09-01T01:06:14;15.37;;;10.77;;
8704;SDS011;4389;41.932;25.904;2022-09-01T01:08:44;18.93;;;10.77;;
8704;SDS011;4389;41.932;25.904;2022-09-01T01:11:23;18.50;;;11.37;;
8704;SDS011;4389;41.932;25.904;2022-09-01T01:13:52;15.77;;;11.33;;
8704;SDS011;4389;41.932;25.904;2022-09-01T01:16:23;16.63;;;11.70;;
8704;SDS011;4389;41.932;25.904;2022-09-01T01:18:52;22.43;;;11.93;;
8704;SDS011;4389;41.932;25.904;2022-09-01T01:21:21;17.60;;;12.30;;
8704;SDS011;4389;41.932;25.904;2022-09-01T01:26:52;15.57;;;11.67;;
8704;SDS011;4389;41.932;25.904;2022-09-01T01:29:21;19.20;;;11.97;;
8704;SDS011;4389;41.932;25.904;2022-09-01T01:31:49;15.60;;;12.73;;
8704;SDS011;4389;41.932;25.904;2022-09-01T01:34:18;15.40;;;12.10;;
8704;SDS011;4389;41.932;25.904;2022-09-01T01:36:47;17.73;;;12.10;;
8704;SDS011;4389;41.932;25.904;2022-09-01T01:39:16;20.83;;;12.37;;
8704;SDS011;4389;41.932;25.904;2022-09-01T01:41:46;19.63;;;13.70;;
8704;SDS011;4389;41.932;25.904;2022-09-01T01:44:15;16.13;;;11.90;;
8704;SDS011;4389;41.932;25.904;2022-09-01T01:46:45;16.13;;;12.43;;
8704;SDS011;4389;41.932;25.904;2022-09-01T01:49:14;15.17;;;11.47;;
8704;SDS011;4389;41.932;25.904;2022-09-01T01:51:44;13.97;;;12.33;;
8704;SDS011;4389;41.932;25.904;2022-09-01T01:54:11;14.60;;;11.13;;
8704;SDS011;4389;41.932;25.904;2022-09-01T01:56:40;20.00;;;12.03;;
8704;SDS011;4389;41.932;25.904;2022-09-01T01:59:08;18.43;;;12.07;;
8704;SDS011;4389;41.932;25.904;2022-09-01T02:01:35;15.37;;;11.43;;
8704;SDS011;4389;41.932;25.904;2022-09-01T02:04:03;22.67;;;11.23;;
8704;SDS011;4389;41.932;25.904;2022-09-01T02:06:31;14.03;;;11.73;;
8704;SDS011;4389;41.932;25.904;2022-09-01T02:08:59;15.47;;;11.83;;
8704;SDS011;4389;41.932;25.904;2022-09-01T02:11:28;14.50;;;11.60;;
8704;SDS011;4389;41.932;25.904;2022-09-01T02:13:58;13.47;;;10.80;;
8704;SDS011;4389;41.932;25.904;2022-09-01T02:16:28;18.83;;;11.60;;
8704;SDS011;4389;41.932;25.904;2022-09-01T02:18:57;14.37;;;10.77;;
8704;SDS011;4389;41.932;25.904;2022-09-01T02:21:25;16.83;;;11.50;;
8704;SDS011;4389;41.932;25.904;2022-09-01T02:23:55;14.58;;;11.08;;
8704;SDS011;4389;41.932;25.904;2022-09-01T02:26:26;16.90;;;12.00;;
8704;SDS011;4389;41.932;25.904;2022-09-01T02:28:56;15.67;;;12.60;;
8704;SDS011;4389;41.932;25.904;2022-09-01T02:31:27;14.60;;;12.77;;
8704;SDS011;4389;41.932;25.904;2022-09-01T02:33:56;20.57;;;13.07;;
8704;SDS011;4389;41.932;25.904;2022-09-01T02:36:23;17.07;;;13.07;;
8704;SDS011;4389;41.932;25.904;2022-09-01T02:38:51;16.97;;;13.33;;
8704;SDS011;4389;41.932;25.904;2022-09-01T02:41:19;19.23;;;13.73;;
8704;SDS011;4389;41.932;25.904;2022-09-01T02:43:48;16.97;;;12.93;;
8704;SDS011;4389;41.932;25.904;2022-09-01T02:46:15;15.00;;;13.47;;
8704;SDS011;4389;41.932;25.904;2022-09-01T02:48:44;18.77;;;12.30;;
8704;SDS011;4389;41.932;25.904;2022-09-01T02:51:15;19.73;;;12.23;;
8704;SDS011;4389;41.932;25.904;2022-09-01T02:53:43;18.40;;;12.80;;
8704;SDS011;4389;41.932;25.904;2022-09-01T02:56:14;15.90;;;12.77;;
8704;SDS011;4389;41.932;25.904;2022-09-01T02:58:43;18.50;;;14.20;;
8704;SDS011;4389;41.932;25.904;2022-09-01T03:01:12;22.40;;;13.57;;
8704;SDS011;4389;41.932;25.904;2022-09-01T03:03:47;22.10;;;14.23;;
8704;SDS011;4389;41.932;25.904;2022-09-01T03:06:15;19.90;;;15.10;;
8704;SDS011;4389;41.932;25.904;2022-09-01T03:08:43;25.57;;;15.37;;
8704;SDS011;4389;41.932;25.904;2022-09-01T03:11:10;26.50;;;14.37;;
8704;SDS011;4389;41.932;25.904;2022-09-01T03:13:37;22.90;;;15.07;;
8704;SDS011;4389;41.932;25.904;2022-09-01T03:16:05;21.70;;;15.60;;
8704;SDS011;4389;41.932;25.904;2022-09-01T03:18:33;23.20;;;16.00;;
8704;SDS011;4389;41.932;25.904;2022-09-01T03:21:01;23.57;;;15.40;;
8704;SDS011;4389;41.932;25.904;2022-09-01T03:23:29;24.23;;;15.80;;
8704;SDS011;4389;41.932;25.904;2022-09-01T03:25:57;22.30;;;14.73;;
8704;SDS011;4389;41.932;25.904;2022-09-01T03:28:24;20.77;;;14.90;;
8704;SDS011;4389;41.932;25.904;2022-09-01T03:30:53;31.40;;;16.07;;
8704;SDS011;4389;41.932;25.904;2022-09-01T03:33:22;26.17;;;15.23;;
8704;SDS011;4389;41.932;25.904;2022-09-01T03:35:50;31.47;;;15.23;;
8704;SDS011;4389;41.932;25.904;2022-09-01T03:38:19;24.03;;;14.37;;
8704;SDS011;4389;41.932;25.904;2022-09-01T03:40:49;20.37;;;14.77;;
8704;SDS011;4389;41.932;25.904;2022-09-01T03:43:17;22.63;;;15.57;;
8704;SDS011;4389;41.932;25.904;2022-09-01T03:45:47;22.60;;;14.80;;
8704;SDS011;4389;41.932;25.904;2022-09-01T03:48:15;18.50;;;14.53;;
8704;SDS011;4389;41.932;25.904;2022-09-01T03:50:43;23.27;;;14.27;;
8704;SDS011;4389;41.932;25.904;2022-09-01T03:53:12;21.60;;;14.73;;
8704;SDS011;4389;41.932;25.904;2022-09-01T03:55:43;26.30;;;16.00;;
8704;SDS011;4389;41.932;25.904;2022-09-01T03:58:11;21.93;;;14.87;;
8704;SDS011;4389;41.932;25.904;2022-09-01T04:00:44;24.30;;;13.67;;
8704;SDS011;4389;41.932;25.904;2022-09-01T04:03:13;17.47;;;13.43;;
8704;SDS011;4389;41.932;25.904;2022-09-01T04:05:46;18.37;;;12.67;;
8704;SDS011;4389;41.932;25.904;2022-09-01T04:08:13;22.03;;;13.67;;
8704;SDS011;4389;41.932;25.904;2022-09-01T04:10:45;19.17;;;13.80;;
8704;SDS011;4389;41.932;25.904;2022-09-01T04:13:15;17.97;;;12.50;;
8704;SDS011;4389;41.932;25.904;2022-09-01T04:15:43;20.10;;;12.53;;
8704;SDS011;4389;41.932;25.904;2022-09-01T04:18:10;22.23;;;12.47;;
8704;SDS011;4389;41.932;25.904;2022-09-01T04:20:45;17.77;;;12.80;;
8704;SDS011;4389;41.932;25.904;2022-09-01T04:23:14;20.30;;;13.40;;
8704;SDS011;4389;41.932;25.904;2022-09-01T04:25:51;16.10;;;13.00;;
8704;SDS011;4389;41.932;25.904;2022-09-01T04:28:21;32.43;;;12.83;;
8704;SDS011;4389;41.932;25.904;2022-09-01T04:30:51;20.77;;;12.53;;
8704;SDS011;4389;41.932;25.904;2022-09-01T04:33:21;20.33;;;12.67;;
8704;SDS011;4389;41.932;25.904;2022-09-01T04:35:50;22.10;;;12.83;;
8704;SDS011;4389;41.932;25.904;2022-09-01T04:38:19;41.37;;;16.00;;
8704;SDS011;4389;41.932;25.904;2022-09-01T04:40:47;20.67;;;13.53;;
8704;SDS011;4389;41.932;25.904;2022-09-01T04:43:16;20.30;;;13.73;;
8704;SDS011;4389;41.932;25.904;2022-09-01T04:45:44;22.47;;;12.77;;
8704;SDS011;4389;41.932;25.904;2022-09-01T04:48:14;18.90;;;13.70;;
8704;SDS011;4389;41.932;25.904;2022-09-01T04:50:41;23.17;;;14.97;;
8704;SDS011;4389;41.932;25.904;2022-09-01T04:53:09;18.73;;;14.77;;
8704;SDS011;4389;41.932;25.904;2022-09-01T04:55:37;21.27;;;14.63;;
8704;SDS011;4389;41.932;25.904;2022-09-01T04:58:08;18.43;;;13.60;;
8704;SDS011;4389;41.932;25.904;2022-09-01T05:00:39;24.40;;;14.23;;
8704;SDS011;4389;41.932;25.904;2022-09-01T05:03:06;14.20;;;12.80;;
8704;SDS011;4389;41.932;25.904;2022-09-01T05:05:35;15.07;;;12.47;;
8704;SDS011;4389;41.932;25.904;2022-09-01T05:08:07;16.63;;;12.60;;
8704;SDS011;4389;41.932;25.904;2022-09-01T05:10:39;21.90;;;13.47;;
8704;SDS011;4389;41.932;25.904;2022-09-01T05:13:08;21.67;;;13.43;;
8704;SDS011;4389;41.932;25.904;2022-09-01T05:15:39;19.10;;;12.17;;
8704;SDS011;4389;41.932;25.904;2022-09-01T05:18:11;17.00;;;12.60;;
8704;SDS011;4389;41.932;25.904;2022-09-01T05:20:40;15.87;;;12.93;;
8704;SDS011;4389;41.932;25.904;2022-09-01T05:23:08;16.60;;;12.27;;
8704;SDS011;4389;41.932;25.904;2022-09-01T05:25:39;15.80;;;12.37;;
8704;SDS011;4389;41.932;25.904;2022-09-01T05:28:08;18.83;;;12.33;;
8704;SDS011;4389;41.932;25.904;2022-09-01T05:30:36;22.40;;;12.17;;
8704;SDS011;4389;41.932;25.904;2022-09-01T05:33:05;19.07;;;12.27;;
8704;SDS011;4389;41.932;25.904;2022-09-01T05:35:37;15.27;;;11.90;;
8704;SDS011;4389;41.932;25.904;2022-09-01T05:38:08;18.27;;;12.33;;
8704;SDS011;4389;41.932;25.904;2022-09-01T05:40:37;21.40;;;12.13;;
8704;SDS011;4389;41.932;25.904;2022-09-01T05:43:06;14.60;;;11.47;;
8704;SDS011;4389;41.932;25.904;2022-09-01T05:45:37;14.20;;;11.43;;
8704;SDS011;4389;41.932;25.904;2022-09-01T05:48:10;15.27;;;12.03;;
8704;SDS011;4389;41.932;25.904;2022-09-01T05:50:42;13.00;;;11.77;;
8704;SDS011;4389;41.932;25.904;2022-09-01T05:53:09;17.47;;;11.83;;
8704;SDS011;4389;41.932;25.904;2022-09-01T05:55:41;13.93;;;11.23;;
8704;SDS011;4389;41.932;25.904;2022-09-01T05:58:09;15.77;;;10.10;;
8704;SDS011;4389;41.932;25.904;2022-09-01T06:00:38;17.67;;;10.87;;
8704;SDS011;4389;41.932;25.904;2022-09-01T06:03:07;18.00;;;12.00;;
8704;SDS011;4389;41.932;25.904;2022-09-01T06:05:36;14.60;;;11.77;;
8704;SDS011;4389;41.932;25.904;2022-09-01T06:08:04;16.00;;;10.57;;
8704;SDS011;4389;41.932;25.904;2022-09-01T06:10:35;18.37;;;11.57;;
8704;SDS011;4389;41.932;25.904;2022-09-01T06:13:06;15.10;;;10.83;;
8704;SDS011;4389;41.932;25.904;2022-09-01T06:15:34;20.23;;;11.03;;
8704;SDS011;4389;41.932;25.904;2022-09-01T06:18:04;11.93;;;10.70;;
8704;SDS011;4389;41.932;25.904;2022-09-01T06:20:38;13.50;;;10.53;;
8704;SDS011;4389;41.932;25.904;2022-09-01T06:23:07;13.17;;;10.47;;
8704;SDS011;4389;41.932;25.904;2022-09-01T06:25:39;19.77;;;11.13;;
8704;SDS011;4389;41.932;25.904;2022-09-01T06:28:07;13.80;;;10.53;;
8704;SDS011;4389;41.932;25.904;2022-09-01T06:30:36;12.40;;;10.50;;
8704;SDS011;4389;41.932;25.904;2022-09-01T06:33:04;20.40;;;10.43;;
8704;SDS011;4389;41.932;25.904;2022-09-01T06:35:34;21.97;;;11.37;;
8704;SDS011;4389;41.932;25.904;2022-09-01T06:38:02;15.43;;;10.20;;
8704;SDS011;4389;41.932;25.904;2022-09-01T06:40:29;17.87;;;9.70;;
8704;SDS011;4389;41.932;25.904;2022-09-01T06:42:56;15.10;;;9.73;;
8704;SDS011;4389;41.932;25.904;2022-09-01T06:45:25;14.83;;;10.13;;
8704;SDS011;4389;41.932;25.904;2022-09-01T06:47:52;17.20;;;10.27;;
8704;SDS011;4389;41.932;25.904;2022-09-01T06:50:20;13.60;;;9.93;;
8704;SDS011;4389;41.932;25.904;2022-09-01T06:52:48;20.50;;;9.43;;
8704;SDS011;4389;41.932;25.904;2022-09-01T06:55:26;13.10;;;9.40;;
8704;SDS011;4389;41.932;25.904;2022-09-01T06:57:58;14.77;;;8.80;;
8704;SDS011;4389;41.932;25.904;2022-09-01T07:00:25;17.97;;;9.43;;
8704;SDS011;4389;41.932;25.904;2022-09-01T07:02:53;15.13;;;9.87;;
8704;SDS011;4389;41.932;25.904;2022-09-01T07:05:21;15.00;;;9.27;;
8704;SDS011;4389;41.932;25.904;2022-09-01T07:07:50;12.83;;;9.27;;
8704;SDS011;4389;41.932;25.904;2022-09-01T07:10:20;9.80;;;8.00;;
8704;SDS011;4389;41.932;25.904;2022-09-01T07:12:49;14.27;;;8.97;;
8704;SDS011;4389;41.932;25.904;2022-09-01T07:15:17;13.60;;;9.17;;
8704;SDS011;4389;41.932;25.904;2022-09-01T07:17:45;17.13;;;9.47;;
8704;SDS011;4389;41.932;25.904;2022-09-01T07:20:14;16.47;;;9.63;;
8704;SDS011;4389;41.932;25.904;2022-09-01T07:22:42;21.20;;;9.40;;
8704;SDS011;4389;41.932;25.904;2022-09-01T07:25:09;20.10;;;8.80;;
8704;SDS011;4389;41.932;25.904;2022-09-01T07:27:37;16.90;;;8.17;;
8704;SDS011;4389;41.932;25.904;2022-09-01T07:30:07;23.77;;;8.63;;
8704;SDS011;4389;41.932;25.904;2022-09-01T07:32:36;17.17;;;7.90;;
8704;SDS011;4389;41.932;25.904;2022-09-01T07:35:05;12.93;;;8.25;;
8704;SDS011;4389;41.932;25.904;2022-09-01T07:37:33;21.60;;;8.50;;
8704;SDS011;4389;41.932;25.904;2022-09-01T07:40:03;22.58;;;9.48;;
8704;SDS011;4389;41.932;25.904;2022-09-01T07:42:32;16.90;;;8.48;;
8704;SDS011;4389;41.932;25.904;2022-09-01T07:44:59;13.52;;;8.23;;
8704;SDS011;4389;41.932;25.904;2022-09-01T07:47:32;27.95;;;8.60;;
8704;SDS011;4389;41.932;25.904;2022-09-01T07:50:01;12.23;;;6.97;;
8704;SDS011;4389;41.932;25.904;2022-09-01T07:52:30;12.45;;;6.43;;
8704;SDS011;4389;41.932;25.904;2022-09-01T07:55:00;21.70;;;7.57;;
8704;SDS011;4389;41.932;25.904;2022-09-01T07:57:27;12.43;;;6.45;;
8704;SDS011;4389;41.932;25.904;2022-09-01T07:59:54;12.85;;;6.80;;
8704;SDS011;4389;41.932;25.904;2022-09-01T08:02:21;24.90;;;7.65;;
8704;SDS011;4389;41.932;25.904;2022-09-01T08:04:50;15.55;;;6.50;;
8704;SDS011;4389;41.932;25.904;2022-09-01T08:07:17;17.23;;;5.78;;
8704;SDS011;4389;41.932;25.904;2022-09-01T08:09:44;11.95;;;6.40;;
8704;SDS011;4389;41.932;25.904;2022-09-01T08:12:12;10.32;;;5.90;;
8704;SDS011;4389;41.932;25.904;2022-09-01T08:14:39;9.85;;;6.63;;
8704;SDS011;4389;41.932;25.904;2022-09-01T08:17:07;13.57;;;6.30;;
8704;SDS011;4389;41.932;25.904;2022-09-01T08:19:35;14.45;;;6.95;;
8704;SDS011;4389;41.932;25.904;2022-09-01T08:22:03;10.57;;;6.93;;
8704;SDS011;4389;41.932;25.904;2022-09-01T08:24:30;12.93;;;8.50;;
8704;SDS011;4389;41.932;25.904;2022-09-01T08:26:57;16.15;;;8.40;;
8704;SDS011;4389;41.932;25.904;2022-09-01T08:29:24;15.98;;;8.65;;
8704;SDS011;4389;41.932;25.904;2022-09-01T08:31:51;10.45;;;7.70;;
8704;SDS011;4389;41.932;25.904;2022-09-01T08:34:19;22.95;;;14.57;;
8704;SDS011;4389;41.932;25.904;2022-09-01T08:36:46;11.90;;;5.78;;
8704;SDS011;4389;41.932;25.904;2022-09-01T08:39:14;13.48;;;6.80;;
8704;SDS011;4389;41.932;25.904;2022-09-01T08:41:42;10.10;;;7.15;;
8704;SDS011;4389;41.932;25.904;2022-09-01T08:44:12;19.02;;;6.15;;
8704;SDS011;4389;41.932;25.904;2022-09-01T08:46:47;12.25;;;6.28;;
8704;SDS011;4389;41.932;25.904;2022-09-01T08:49:20;11.93;;;7.05;;
8704;SDS011;4389;41.932;25.904;2022-09-01T08:51:51;13.25;;;6.47;;
8704;SDS011;4389;41.932;25.904;2022-09-01T08:54:25;10.10;;;5.95;;
8704;SDS011;4389;41.932;25.904;2022-09-01T08:56:58;13.88;;;8.27;;
8704;SDS011;4389;41.932;25.904;2022-09-01T08:59:30;16.73;;;5.95;;
8704;SDS011;4389;41.932;25.904;2022-09-01T09:01:59;10.80;;;6.82;;
8704;SDS011;4389;41.932;25.904;2022-09-01T09:04:36;12.68;;;6.50;;
8704;SDS011;4389;41.932;25.904;2022-09-01T09:07:17;11.93;;;6.20;;
8704;SDS011;4389;41.932;25.904;2022-09-01T09:09:54;10.95;;;5.90;;
8704;SDS011;4389;41.932;25.904;2022-09-01T09:12:31;12.10;;;5.60;;
8704;SDS011;4389;41.932;25.904;2022-09-01T09:15:09;9.18;;;5.20;;
8704;SDS011;4389;41.932;25.904;2022-09-01T09:17:45;14.50;;;6.75;;
8704;SDS011;4389;41.932;25.904;2022-09-01T09:20:20;14.88;;;5.68;;
8704;SDS011;4389;41.932;25.904;2022-09-01T09:22:47;14.77;;;5.78;;
8704;SDS011;4389;41.932;25.904;2022-09-01T09:25:16;11.57;;;5.10;;
8704;SDS011;4389;41.932;25.904;2022-09-01T09:27:44;11.38;;;4.50;;
8704;SDS011;4389;41.932;25.904;2022-09-01T09:30:13;13.93;;;6.72;;
8704;SDS011;4389;41.932;25.904;2022-09-01T09:32:46;13.52;;;5.78;;
8704;SDS011;4389;41.932;25.904;2022-09-01T09:35:17;13.70;;;4.97;;
8704;SDS011;4389;41.932;25.904;2022-09-01T09:37:48;21.73;;;5.50;;
8704;SDS011;4389;41.932;25.904;2022-09-01T09:40:17;10.00;;;4.97;;
8704;SDS011;4389;41.932;25.904;2022-09-01T09:42:58;10.35;;;4.22;;
8704;SDS011;4389;41.932;25.904;2022-09-01T09:45:30;16.80;;;5.45;;
8704;SDS011;4389;41.932;25.904;2022-09-01T09:47:59;16.70;;;5.55;;
8704;SDS011;4389;41.932;25.904;2022-09-01T09:50:30;16.23;;;5.03;;
8704;SDS011;4389;41.932;25.904;2022-09-01T09:53:12;8.73;;;5.03;;
8704;SDS011;4389;41.932;25.904;2022-09-01T09:55:52;15.55;;;5.97;;
8704;SDS011;4389;41.932;25.904;2022-09-01T09:58:23;8.20;;;4.22;;
8704;SDS011;4389;41.932;25.904;2022-09-01T10:01:06;15.93;;;4.88;;
8704;SDS011;4389;41.932;25.904;2022-09-01T10:03:40;17.52;;;4.88;;
8704;SDS011;4389;41.932;25.904;2022-09-01T10:06:09;11.25;;;4.45;;
8704;SDS011;4389;41.932;25.904;2022-09-01T10:08:39;14.88;;;4.72;;
8704;SDS011;4389;41.932;25.904;2022-09-01T10:11:23;14.25;;;4.93;;
8704;SDS011;4389;41.932;25.904;2022-09-01T10:13:52;15.35;;;5.10;;
8704;SDS011;4389;41.932;25.904;2022-09-01T10:16:22;10.10;;;4.72;;
8704;SDS011;4389;41.932;25.904;2022-09-01T10:18:54;16.23;;;5.45;;
8704;SDS011;4389;41.932;25.904;2022-09-01T10:21:31;14.77;;;7.82;;
8704;SDS011;4389;41.932;25.904;2022-09-01T10:24:03;28.58;;;7.70;;
8704;SDS011;4389;41.932;25.904;2022-09-01T10:26:40;15.95;;;5.03;;
8704;SDS011;4389;41.932;25.904;2022-09-01T10:29:13;18.95;;;7.63;;
8704;SDS011;4389;41.932;25.904;2022-09-01T10:31:43;13.88;;;8.25;;
8704;SDS011;4389;41.932;25.904;2022-09-01T10:34:11;14.57;;;6.05;;
8704;SDS011;4389;41.932;25.904;2022-09-01T10:36:43;12.32;;;5.53;;
8704;SDS011;4389;41.932;25.904;2022-09-01T10:39:12;10.75;;;4.80;;
8704;SDS011;4389;41.932;25.904;2022-09-01T10:44:32;13.48;;;6.45;;
8704;SDS011;4389;41.932;25.904;2022-09-01T10:47:04;14.73;;;9.85;;
8704;SDS011;4389;41.932;25.904;2022-09-01T10:55:26;14.13;;;5.53;;
8704;SDS011;4389;41.932;25.904;2022-09-01T10:58:01;11.20;;;4.43;;
8704;SDS011;4389;41.932;25.904;2022-09-01T11:06:42;13.90;;;8.65;;
8704;SDS011;4389;41.932;25.904;2022-09-01T11:09:19;14.23;;;7.90;;
8704;SDS011;4389;41.932;25.904;2022-09-01T11:11:50;9.45;;;6.25;;
8704;SDS011;4389;41.932;25.904;2022-09-01T11:14:47;11.52;;;6.80;;
8704;SDS011;4389;41.932;25.904;2022-09-01T11:17:18;14.13;;;7.75;;
8704;SDS011;4389;41.932;25.904;2022-09-01T11:19:53;13.63;;;9.10;;
8704;SDS011;4389;41.932;25.904;2022-09-01T11:22:24;12.02;;;7.55;;
8704;SDS011;4389;41.932;25.904;2022-09-01T11:25:09;14.70;;;5.60;;
8704;SDS011;4389;41.932;25.904;2022-09-01T11:27:59;9.88;;;5.18;;
8704;SDS011;4389;41.932;25.904;2022-09-01T11:30:34;12.55;;;5.88;;
8704;SDS011;4389;41.932;25.904;2022-09-01T11:33:19;13.98;;;6.20;;
8704;SDS011;4389;41.932;25.904;2022-09-01T11:35:58;9.07;;;5.00;;
8704;SDS011;4389;41.932;25.904;2022-09-01T11:38:28;17.67;;;5.00;;
8704;SDS011;4389;41.932;25.904;2022-09-01T11:41:03;13.00;;;5.55;;
8704;SDS011;4389;41.932;25.904;2022-09-01T11:43:29;20.05;;;5.55;;
8704;SDS011;4389;41.932;25.904;2022-09-01T11:46:01;13.65;;;5.85;;
8704;SDS011;4389;41.932;25.904;2022-09-01T11:48:34;9.27;;;5.35;;
8704;SDS011;4389;41.932;25.904;2022-09-01T11:51:02;10.98;;;5.65;;
8704;SDS011;4389;41.932;25.904;2022-09-01T11:53:29;11.05;;;5.50;;
8704;SDS011;4389;41.932;25.904;2022-09-01T11:56:10;12.35;;;4.95;;
8704;SDS011;4389;41.932;25.904;2022-09-01T11:58:40;10.07;;;4.93;;
8704;SDS011;4389;41.932;25.904;2022-09-01T12:01:13;25.70;;;7.90;;
8704;SDS011;4389;41.932;25.904;2022-09-01T12:03:42;12.00;;;5.43;;
8704;SDS011;4389;41.932;25.904;2022-09-01T12:06:12;13.88;;;4.97;;
8704;SDS011;4389;41.932;25.904;2022-09-01T12:08:50;15.35;;;4.97;;
8704;SDS011;4389;41.932;25.904;2022-09-01T12:11:21;13.18;;;6.25;;
8704;SDS011;4389;41.932;25.904;2022-09-01T12:13:58;9.32;;;4.70;;
8704;SDS011;4389;41.932;25.904;2022-09-01T12:16:28;11.98;;;5.53;;
8704;SDS011;4389;41.932;25.904;2022-09-01T12:18:56;20.92;;;5.78;;
8704;SDS011;4389;41.932;25.904;2022-09-01T12:21:25;13.50;;;4.65;;
8704;SDS011;4389;41.932;25.904;2022-09-01T12:24:08;10.35;;;4.60;;
8704;SDS011;4389;41.932;25.904;2022-09-01T12:26:38;10.30;;;5.57;;
8704;SDS011;4389;41.932;25.904;2022-09-01T12:29:06;15.60;;;5.57;;
8704;SDS011;4389;41.932;25.904;2022-09-01T12:31:34;12.02;;;6.90;;
8704;SDS011;4389;41.932;25.904;2022-09-01T12:34:03;10.02;;;5.45;;
8704;SDS011;4389;41.932;25.904;2022-09-01T12:36:30;7.78;;;3.72;;
8704;SDS011;4389;41.932;25.904;2022-09-01T12:41:45;16.48;;;7.15;;
8704;SDS011;4389;41.932;25.904;2022-09-01T12:44:27;11.05;;;4.07;;
8704;SDS011;4389;41.932;25.904;2022-09-01T12:46:58;17.73;;;4.40;;
8704;SDS011;4389;41.932;25.904;2022-09-01T12:49:33;17.15;;;5.13;;
8704;SDS011;4389;41.932;25.904;2022-09-01T12:52:19;11.95;;;4.72;;
8704;SDS011;4389;41.932;25.904;2022-09-01T12:54:50;9.52;;;5.95;;
8704;SDS011;4389;41.932;25.904;2022-09-01T12:57:25;15.35;;;8.13;;
8704;SDS011;4389;41.932;25.904;2022-09-01T13:00:07;12.98;;;4.78;;
8704;SDS011;4389;41.932;25.904;2022-09-01T13:02:44;11.18;;;4.05;;
8704;SDS011;4389;41.932;25.904;2022-09-01T13:05:20;12.40;;;4.25;;
8704;SDS011;4389;41.932;25.904;2022-09-01T13:07:53;11.50;;;5.00;;
8704;SDS011;4389;41.932;25.904;2022-09-01T13:10:21;14.35;;;5.70;;
8704;SDS011;4389;41.932;25.904;2022-09-01T13:12:49;13.45;;;4.47;;
8704;SDS011;4389;41.932;25.904;2022-09-01T13:15:17;9.82;;;4.93;;
8704;SDS011;4389;41.932;25.904;2022-09-01T13:17:46;10.98;;;4.30;;
8704;SDS011;4389;41.932;25.904;2022-09-01T13:20:13;11.68;;;4.35;;
8704;SDS011;4389;41.932;25.904;2022-09-01T13:22:40;12.73;;;4.45;;
8704;SDS011;4389;41.932;25.904;2022-09-01T13:25:09;5.75;;;3.80;;
8704;SDS011;4389;41.932;25.904;2022-09-01T13:27:37;5.90;;;3.95;;
8704;SDS011;4389;41.932;25.904;2022-09-01T13:30:09;14.25;;;4.05;;
8704;SDS011;4389;41.932;25.904;2022-09-01T13:32:38;9.88;;;3.85;;
8704;SDS011;4389;41.932;25.904;2022-09-01T13:35:07;11.93;;;3.90;;
8704;SDS011;4389;41.932;25.904;2022-09-01T13:37:34;14.02;;;4.40;;
8704;SDS011;4389;41.932;25.904;2022-09-01T13:40:01;11.70;;;4.57;;
8704;SDS011;4389;41.932;25.904;2022-09-01T13:42:29;7.20;;;3.55;;
8704;SDS011;4389;41.932;25.904;2022-09-01T13:44:56;9.50;;;3.97;;
8704;SDS011;4389;41.932;25.904;2022-09-01T13:47:23;12.02;;;4.10;;
8704;SDS011;4389;41.932;25.904;2022-09-01T13:49:50;7.13;;;3.67;;
8704;SDS011;4389;41.932;25.904;2022-09-01T13:52:19;9.10;;;4.35;;
8704;SDS011;4389;41.932;25.904;2022-09-01T13:54:46;8.93;;;4.32;;
8704;SDS011;4389;41.932;25.904;2022-09-01T13:57:13;10.77;;;4.32;;
8704;SDS011;4389;41.932;25.904;2022-09-01T13:59:40;10.82;;;4.15;;
8704;SDS011;4389;41.932;25.904;2022-09-01T14:02:07;10.02;;;3.92;;
8704;SDS011;4389;41.932;25.904;2022-09-01T14:04:35;8.50;;;3.38;;
8704;SDS011;4389;41.932;25.904;2022-09-01T14:07:02;14.77;;;4.90;;
8704;SDS011;4389;41.932;25.904;2022-09-01T14:09:30;16.00;;;5.07;;
8704;SDS011;4389;41.932;25.904;2022-09-01T14:11:58;11.18;;;4.25;;
8704;SDS011;4389;41.932;25.904;2022-09-01T14:14:26;7.78;;;4.22;;
8704;SDS011;4389;41.932;25.904;2022-09-01T14:16:53;14.52;;;4.47;;
8704;SDS011;4389;41.932;25.904;2022-09-01T14:19:19;19.55;;;5.00;;
8704;SDS011;4389;41.932;25.904;2022-09-01T14:21:47;9.02;;;4.55;;
8704;SDS011;4389;41.932;25.904;2022-09-01T14:24:14;14.38;;;5.25;;
8704;SDS011;4389;41.932;25.904;2022-09-01T14:26:47;8.63;;;4.40;;
8704;SDS011;4389;41.932;25.904;2022-09-01T14:29:14;15.43;;;4.88;;
8704;SDS011;4389;41.932;25.904;2022-09-01T14:31:41;14.27;;;4.95;;
8704;SDS011;4389;41.932;25.904;2022-09-01T14:34:09;11.93;;;4.80;;
8704;SDS011;4389;41.932;25.904;2022-09-01T14:36:36;9.48;;;6.30;;
8704;SDS011;4389;41.932;25.904;2022-09-01T14:39:03;15.40;;;5.82;;
8704;SDS011;4389;41.932;25.904;2022-09-01T14:41:30;18.73;;;6.45;;
8704;SDS011;4389;41.932;25.904;2022-09-01T14:43:59;18.15;;;5.60;;
8704;SDS011;4389;41.932;25.904;2022-09-01T14:46:27;15.52;;;6.07;;
8704;SDS011;4389;41.932;25.904;2022-09-01T14:48:57;12.02;;;7.95;;
8704;SDS011;4389;41.932;25.904;2022-09-01T14:51:26;19.60;;;11.35;;
8704;SDS011;4389;41.932;25.904;2022-09-01T14:53:54;14.48;;;5.70;;
8704;SDS011;4389;41.932;25.904;2022-09-01T14:56:22;12.27;;;5.15;;
8704;SDS011;4389;41.932;25.904;2022-09-01T14:58:49;11.40;;;5.70;;
8704;SDS011;4389;41.932;25.904;2022-09-01T15:01:24;12.48;;;5.82;;
8704;SDS011;4389;41.932;25.904;2022-09-01T15:03:52;16.23;;;4.78;;
8704;SDS011;4389;41.932;25.904;2022-09-01T15:06:19;19.00;;;5.43;;
8704;SDS011;4389;41.932;25.904;2022-09-01T15:08:48;11.18;;;4.60;;
8704;SDS011;4389;41.932;25.904;2022-09-01T15:11:16;10.90;;;4.57;;
8704;SDS011;4389;41.932;25.904;2022-09-01T15:13:45;18.70;;;6.55;;
8704;SDS011;4389;41.932;25.904;2022-09-01T15:16:12;12.38;;;4.90;;
8704;SDS011;4389;41.932;25.904;2022-09-01T15:18:42;15.57;;;4.78;;
8704;SDS011;4389;41.932;25.904;2022-09-01T15:21:16;12.82;;;4.57;;